sensor_id;sensor_type;location;lat;lon;timestamp;pressure;altitude;pressure_sealevel;temperature;humidity
967;BME280;56108;48.730;9.304;2023-01-26T00:01:24;98114.22;;;-0.20;100.00
967;BME280;56108;48.730;9.304;2023-01-26T00:03:33;98105.44;;;-0.17;100.00
967;BME280;56108;48.730;9.304;2023-01-26T00:05:41;98102.94;;;-0.23;100.00
967;BME280;56108;48.730;9.304;2023-01-26T00:07:49;98099.38;;;-0.19;100.00
967;BME280;56108;48.730;9.304;2023-01-26T00:09:57;98095.25;;;-0.33;100.00
967;BME280;56108;48.730;9.304;2023-01-26T00:12:06;98088.28;;;-0.34;100.00
967;BME280;56108;48.730;9.304;2023-01-26T00:14:17;98093.50;;;-0.32;100.00
967;BME280;56108;48.730;9.304;2023-01-26T00:16:25;98096.88;;;-0.25;100.00
967;BME280;56108;48.730;9.304;2023-01-26T00:18:36;98089.19;;;-0.35;100.00
967;BME280;56108;48.730;9.304;2023-01-26T00:20:44;98097.69;;;-0.23;100.00
967;BME280;56108;48.730;9.304;2023-01-26T00:22:52;98090.53;;;-0.14;100.00
967;BME280;56108;48.730;9.304;2023-01-26T00:25:00;98092.34;;;-0.17;100.00
967;BME280;56108;48.730;9.304;2023-01-26T00:27:08;98084.47;;;-0.16;100.00
967;BME280;56108;48.730;9.304;2023-01-26T00:29:22;98087.84;;;-0.09;100.00
967;BME280;56108;48.730;9.304;2023-01-26T00:31:30;98088.53;;;-0.01;100.00
967;BME280;56108;48.730;9.304;2023-01-26T00:33:38;98080.69;;;-0.01;100.00
967;BME280;56108;48.730;9.304;2023-01-26T00:35:53;98072.75;;;0.04;100.00
967;BME280;56108;48.730;9.304;2023-01-26T00:38:00;98070.19;;;0.02;100.00
967;BME280;56108;48.730;9.304;2023-01-26T00:40:10;98068.34;;;0.07;100.00
967;BME280;56108;48.730;9.304;2023-01-26T00:42:18;98068.47;;;-0.01;100.00
967;BME280;56108;48.730;9.304;2023-01-26T00:44:33;98059.09;;;-0.11;100.00
967;BME280;56108;48.730;9.304;2023-01-26T00:46:41;98062.50;;;-0.07;100.00
967;BME280;56108;48.730;9.304;2023-01-26T00:48:49;98057.38;;;-0.12;100.00
967;BME280;56108;48.730;9.304;2023-01-26T00:50:57;98062.38;;;-0.01;100.00
967;BME280;56108;48.730;9.304;2023-01-26T00:53:05;98051.22;;;-0.11;100.00
967;BME280;56108;48.730;9.304;2023-01-26T00:55:13;98045.81;;;0.00;100.00
967;BME280;56108;48.730;9.304;2023-01-26T00:57:21;98046.78;;;-0.06;100.00
967;BME280;56108;48.730;9.304;2023-01-26T00:59:33;98046.84;;;-0.09;100.00
967;BME280;56108;48.730;9.304;2023-01-26T01:01:41;98053.16;;;-0.19;100.00
967;BME280;56108;48.730;9.304;2023-01-26T01:03:50;98046.16;;;-0.18;100.00
967;BME280;56108;48.730;9.304;2023-01-26T01:05:58;98052.22;;;-0.16;100.00
967;BME280;56108;48.730;9.304;2023-01-26T01:08:07;98053.97;;;-0.15;100.00
967;BME280;56108;48.730;9.304;2023-01-26T01:10:14;98047.31;;;-0.33;100.00
967;BME280;56108;48.730;9.304;2023-01-26T01:12:22;98046.47;;;-0.34;100.00
967;BME280;56108;48.730;9.304;2023-01-26T01:14:34;98047.03;;;-0.18;100.00
967;BME280;56108;48.730;9.304;2023-01-26T01:16:42;98040.97;;;-0.21;100.00
967;BME280;56108;48.730;9.304;2023-01-26T01:18:51;98045.56;;;-0.31;100.00
967;BME280;56108;48.730;9.304;2023-01-26T01:21:04;98048.94;;;-0.26;100.00
967;BME280;56108;48.730;9.304;2023-01-26T01:23:12;98054.19;;;-0.26;100.00
967;BME280;56108;48.730;9.304;2023-01-26T01:25:20;98052.44;;;-0.27;100.00
967;BME280;56108;48.730;9.304;2023-01-26T01:27:28;98038.72;;;-0.40;100.00
967;BME280;56108;48.730;9.304;2023-01-26T01:29:39;98046.22;;;-0.21;100.00
967;BME280;56108;48.730;9.304;2023-01-26T01:31:46;98039.13;;;-0.16;100.00
967;BME280;56108;48.730;9.304;2023-01-26T01:33:55;98036.31;;;-0.06;100.00
967;BME280;56108;48.730;9.304;2023-01-26T01:36:04;98038.09;;;-0.08;100.00
967;BME280;56108;48.730;9.304;2023-01-26T01:38:14;98040.66;;;-0.05;100.00
967;BME280;56108;48.730;9.304;2023-01-26T01:40:22;98037.22;;;-0.07;100.00
967;BME280;56108;48.730;9.304;2023-01-26T01:42:32;98034.44;;;0.01;100.00
967;BME280;56108;48.730;9.304;2023-01-26T01:44:45;98031.16;;;-0.09;100.00
967;BME280;56108;48.730;9.304;2023-01-26T01:47:19;98035.50;;;-0.08;100.00
967;BME280;56108;48.730;9.304;2023-01-26T01:49:33;98033.03;;;-0.15;100.00
967;BME280;56108;48.730;9.304;2023-01-26T01:51:44;98031.38;;;-0.19;100.00
967;BME280;56108;48.730;9.304;2023-01-26T01:53:55;98026.22;;;-0.24;100.00
967;BME280;56108;48.730;9.304;2023-01-26T01:56:11;98029.56;;;-0.17;100.00
967;BME280;56108;48.730;9.304;2023-01-26T01:58:22;98026.22;;;-0.24;100.00
967;BME280;56108;48.730;9.304;2023-01-26T02:00:34;98029.75;;;-0.25;100.00
967;BME280;56108;48.730;9.304;2023-01-26T02:02:45;98019.97;;;-0.15;100.00
967;BME280;56108;48.730;9.304;2023-01-26T02:05:23;98007.66;;;-0.12;100.00
967;BME280;56108;48.730;9.304;2023-01-26T02:07:33;98013.28;;;-0.32;100.00
967;BME280;56108;48.730;9.304;2023-01-26T02:09:42;98020.34;;;-0.37;100.00
967;BME280;56108;48.730;9.304;2023-01-26T02:12:05;98012.59;;;-0.40;100.00
967;BME280;56108;48.730;9.304;2023-01-26T02:14:16;98009.00;;;-0.34;100.00
967;BME280;56108;48.730;9.304;2023-01-26T02:16:27;97996.00;;;-0.39;100.00
967;BME280;56108;48.730;9.304;2023-01-26T02:18:35;98002.22;;;-0.44;100.00
967;BME280;56108;48.730;9.304;2023-01-26T02:20:45;97996.94;;;-0.41;100.00
967;BME280;56108;48.730;9.304;2023-01-26T02:22:58;97991.72;;;-0.43;100.00
967;BME280;56108;48.730;9.304;2023-01-26T02:25:15;97996.03;;;-0.40;100.00
967;BME280;56108;48.730;9.304;2023-01-26T02:27:28;97988.31;;;-0.46;100.00
967;BME280;56108;48.730;9.304;2023-01-26T02:29:36;97984.72;;;-0.42;100.00
967;BME280;56108;48.730;9.304;2023-01-26T02:31:45;97988.28;;;-0.45;100.00
967;BME280;56108;48.730;9.304;2023-01-26T02:33:55;97979.47;;;-0.39;100.00
967;BME280;56108;48.730;9.304;2023-01-26T02:36:05;97976.97;;;-0.45;100.00
967;BME280;56108;48.730;9.304;2023-01-26T02:38:14;97974.25;;;-0.41;100.00
967;BME280;56108;48.730;9.304;2023-01-26T02:40:27;97968.97;;;-0.38;100.00
967;BME280;56108;48.730;9.304;2023-01-26T02:42:39;97969.16;;;-0.47;100.00
967;BME280;56108;48.730;9.304;2023-01-26T02:44:45;97969.03;;;-0.41;100.00
967;BME280;56108;48.730;9.304;2023-01-26T02:46:55;97963.03;;;-0.46;100.00
967;BME280;56108;48.730;9.304;2023-01-26T02:49:03;97963.78;;;-0.39;100.00
967;BME280;56108;48.730;9.304;2023-01-26T02:51:24;97962.81;;;-0.35;100.00
967;BME280;56108;48.730;9.304;2023-01-26T02:53:32;97964.50;;;-0.31;100.00
967;BME280;56108;48.730;9.304;2023-01-26T02:55:40;97957.81;;;-0.47;100.00
967;BME280;56108;48.730;9.304;2023-01-26T02:57:50;97955.97;;;-0.42;100.00
967;BME280;56108;48.730;9.304;2023-01-26T02:59:59;97952.38;;;-0.37;100.00
967;BME280;56108;48.730;9.304;2023-01-26T03:02:08;97954.03;;;-0.33;100.00
967;BME280;56108;48.730;9.304;2023-01-26T03:04:16;97951.41;;;-0.31;100.00
967;BME280;56108;48.730;9.304;2023-01-26T03:06:24;97949.03;;;-0.43;100.00
967;BME280;56108;48.730;9.304;2023-01-26T03:08:34;97945.50;;;-0.41;100.00
967;BME280;56108;48.730;9.304;2023-01-26T03:10:41;97943.75;;;-0.42;100.00
967;BME280;56108;48.730;9.304;2023-01-26T03:12:54;97941.06;;;-0.37;100.00
967;BME280;56108;48.730;9.304;2023-01-26T03:15:03;97937.41;;;-0.29;100.00
967;BME280;56108;48.730;9.304;2023-01-26T03:17:24;97936.63;;;-0.34;100.00
967;BME280;56108;48.730;9.304;2023-01-26T03:19:33;97933.78;;;-0.23;100.00
967;BME280;56108;48.730;9.304;2023-01-26T03:22:02;97934.28;;;-0.04;100.00
967;BME280;56108;48.730;9.304;2023-01-26T03:24:23;97945.66;;;-0.07;100.00
967;BME280;56108;48.730;9.304;2023-01-26T03:26:50;97933.69;;;-0.18;100.00
967;BME280;56108;48.730;9.304;2023-01-26T03:29:13;97927.19;;;0.01;100.00
967;BME280;56108;48.730;9.304;2023-01-26T03:31:22;97919.09;;;0.12;100.00
967;BME280;56108;48.730;9.304;2023-01-26T03:33:30;97921.50;;;0.21;100.00
967;BME280;56108;48.730;9.304;2023-01-26T03:35:38;97932.84;;;0.21;100.00
967;BME280;56108;48.730;9.304;2023-01-26T03:37:46;97932.75;;;0.24;100.00
967;BME280;56108;48.730;9.304;2023-01-26T03:40:31;97934.56;;;0.22;100.00
967;BME280;56108;48.730;9.304;2023-01-26T03:42:52;97922.13;;;0.32;100.00
967;BME280;56108;48.730;9.304;2023-01-26T03:45:15;97927.16;;;0.40;100.00
967;BME280;56108;48.730;9.304;2023-01-26T03:47:39;97927.03;;;0.44;100.00
967;BME280;56108;48.730;9.304;2023-01-26T03:50:01;97928.09;;;0.37;100.00
967;BME280;56108;48.730;9.304;2023-01-26T03:52:21;97935.06;;;0.38;100.00
967;BME280;56108;48.730;9.304;2023-01-26T03:54:42;97937.31;;;0.15;100.00
967;BME280;56108;48.730;9.304;2023-01-26T03:57:02;97940.09;;;0.09;100.00
967;BME280;56108;48.730;9.304;2023-01-26T03:59:11;97930.69;;;0.00;100.00
967;BME280;56108;48.730;9.304;2023-01-26T04:01:25;97929.59;;;-0.30;100.00
967;BME280;56108;48.730;9.304;2023-01-26T04:03:37;97923.78;;;-0.44;100.00
967;BME280;56108;48.730;9.304;2023-01-26T04:05:58;97925.25;;;-0.31;100.00
967;BME280;56108;48.730;9.304;2023-01-26T04:08:24;97916.44;;;-0.27;100.00
967;BME280;56108;48.730;9.304;2023-01-26T04:10:34;97919.81;;;-0.20;100.00
967;BME280;56108;48.730;9.304;2023-01-26T04:12:42;97917.34;;;-0.28;100.00
967;BME280;56108;48.730;9.304;2023-01-26T04:15:03;97914.41;;;-0.55;100.00
967;BME280;56108;48.730;9.304;2023-01-26T04:17:26;97911.06;;;-0.63;100.00
967;BME280;56108;48.730;9.304;2023-01-26T04:19:47;97903.91;;;-0.51;100.00
967;BME280;56108;48.730;9.304;2023-01-26T04:22:10;97905.38;;;-0.40;100.00
967;BME280;56108;48.730;9.304;2023-01-26T04:24:20;97901.38;;;-0.56;100.00
967;BME280;56108;48.730;9.304;2023-01-26T04:26:32;97898.75;;;-0.56;100.00
967;BME280;56108;48.730;9.304;2023-01-26T04:28:45;97892.94;;;-0.70;100.00
967;BME280;56108;48.730;9.304;2023-01-26T04:33:03;97882.75;;;-0.84;100.00
967;BME280;56108;48.730;9.304;2023-01-26T04:35:12;97889.81;;;-0.89;100.00
967;BME280;56108;48.730;9.304;2023-01-26T04:37:21;97877.59;;;-0.87;100.00
967;BME280;56108;48.730;9.304;2023-01-26T04:39:29;97877.25;;;-0.70;100.00
967;BME280;56108;48.730;9.304;2023-01-26T04:41:37;97872.00;;;-0.69;100.00
967;BME280;56108;48.730;9.304;2023-01-26T04:43:49;97875.31;;;-0.61;100.00
967;BME280;56108;48.730;9.304;2023-01-26T04:45:57;97866.00;;;-0.74;100.00
967;BME280;56108;48.730;9.304;2023-01-26T04:48:09;97862.97;;;-0.54;100.00
967;BME280;56108;48.730;9.304;2023-01-26T04:50:18;97856.94;;;-0.56;100.00
967;BME280;56108;48.730;9.304;2023-01-26T04:52:27;97859.56;;;-0.58;100.00
967;BME280;56108;48.730;9.304;2023-01-26T04:54:36;97856.91;;;-0.55;100.00
967;BME280;56108;48.730;9.304;2023-01-26T04:56:44;97855.81;;;-0.44;100.00
967;BME280;56108;48.730;9.304;2023-01-26T04:58:53;97864.22;;;-0.30;100.00
967;BME280;56108;48.730;9.304;2023-01-26T05:01:02;97861.50;;;-0.25;100.00
967;BME280;56108;48.730;9.304;2023-01-26T05:03:13;97869.97;;;-0.16;100.00
967;BME280;56108;48.730;9.304;2023-01-26T05:05:21;97862.38;;;-0.25;100.00
967;BME280;56108;48.730;9.304;2023-01-26T05:07:29;97871.75;;;-0.16;100.00
967;BME280;56108;48.730;9.304;2023-01-26T05:09:37;97865.50;;;-0.09;100.00
967;BME280;56108;48.730;9.304;2023-01-26T05:12:03;97864.56;;;-0.07;100.00
967;BME280;56108;48.730;9.304;2023-01-26T05:14:42;97868.06;;;-0.08;100.00
967;BME280;56108;48.730;9.304;2023-01-26T05:17:09;97873.44;;;-0.14;100.00
967;BME280;56108;48.730;9.304;2023-01-26T05:19:27;97876.91;;;-0.13;100.00
967;BME280;56108;48.730;9.304;2023-01-26T05:21:55;97884.19;;;-0.28;100.00
967;BME280;56108;48.730;9.304;2023-01-26T05:24:03;97882.44;;;-0.27;100.00
967;BME280;56108;48.730;9.304;2023-01-26T05:26:25;97874.78;;;-0.35;100.00
967;BME280;56108;48.730;9.304;2023-01-26T05:28:37;97875.78;;;-0.42;100.00
967;BME280;56108;48.730;9.304;2023-01-26T05:30:45;97889.84;;;-0.47;100.00
967;BME280;56108;48.730;9.304;2023-01-26T05:32:59;97877.09;;;-0.63;100.00
967;BME280;56108;48.730;9.304;2023-01-26T05:35:11;97884.84;;;-0.57;100.00
967;BME280;56108;48.730;9.304;2023-01-26T05:37:19;97883.22;;;-0.64;100.00
967;BME280;56108;48.730;9.304;2023-01-26T05:39:27;97886.63;;;-0.60;100.00
967;BME280;56108;48.730;9.304;2023-01-26T05:41:37;97882.56;;;-0.75;100.00
967;BME280;56108;48.730;9.304;2023-01-26T05:44:11;97889.41;;;-0.68;100.00
967;BME280;56108;48.730;9.304;2023-01-26T05:46:23;97886.75;;;-0.66;100.00
967;BME280;56108;48.730;9.304;2023-01-26T05:48:31;97888.31;;;-0.56;100.00
967;BME280;56108;48.730;9.304;2023-01-26T05:50:41;97889.97;;;-0.54;100.00
967;BME280;56108;48.730;9.304;2023-01-26T05:52:58;97893.63;;;-0.61;100.00
967;BME280;56108;48.730;9.304;2023-01-26T05:55:08;97893.75;;;-0.67;100.00
967;BME280;56108;48.730;9.304;2023-01-26T05:57:16;97886.97;;;-0.77;100.00
967;BME280;56108;48.730;9.304;2023-01-26T05:59:29;97888.78;;;-0.81;100.00
967;BME280;56108;48.730;9.304;2023-01-26T06:01:37;97889.84;;;-0.91;100.00
967;BME280;56108;48.730;9.304;2023-01-26T06:03:47;97887.03;;;-0.80;100.00
967;BME280;56108;48.730;9.304;2023-01-26T06:05:58;97887.16;;;-0.86;100.00
967;BME280;56108;48.730;9.304;2023-01-26T06:08:25;97889.88;;;-0.92;100.00
967;BME280;56108;48.730;9.304;2023-01-26T06:10:58;97885.94;;;-1.13;100.00
967;BME280;56108;48.730;9.304;2023-01-26T06:13:22;97889.94;;;-0.95;100.00
967;BME280;56108;48.730;9.304;2023-01-26T06:15:39;97885.34;;;-0.83;100.00
967;BME280;56108;48.730;9.304;2023-01-26T06:17:55;97892.34;;;-0.83;100.00
967;BME280;56108;48.730;9.304;2023-01-26T06:20:07;97886.47;;;-0.96;100.00
967;BME280;56108;48.730;9.304;2023-01-26T06:22:23;97882.66;;;-0.80;100.00
967;BME280;56108;48.730;9.304;2023-01-26T06:24:36;97886.13;;;-0.79;100.00
967;BME280;56108;48.730;9.304;2023-01-26T06:26:46;97879.03;;;-0.71;100.00
967;BME280;56108;48.730;9.304;2023-01-26T06:28:55;97886.75;;;-0.66;100.00
967;BME280;56108;48.730;9.304;2023-01-26T06:31:07;97891.13;;;-0.67;100.00
967;BME280;56108;48.730;9.304;2023-01-26T06:33:16;97895.38;;;-0.63;100.00
967;BME280;56108;48.730;9.304;2023-01-26T06:35:26;97897.34;;;-0.72;100.00
967;BME280;56108;48.730;9.304;2023-01-26T06:37:40;97896.53;;;-0.76;100.00
967;BME280;56108;48.730;9.304;2023-01-26T06:39:49;97896.38;;;-0.67;100.00
967;BME280;56108;48.730;9.304;2023-01-26T06:41:57;97894.47;;;-0.60;100.00
967;BME280;56108;48.730;9.304;2023-01-26T06:44:08;97893.53;;;-0.58;100.00
967;BME280;56108;48.730;9.304;2023-01-26T06:46:16;97899.66;;;-0.57;100.00
967;BME280;56108;48.730;9.304;2023-01-26T06:48:28;97899.78;;;-0.65;100.00
967;BME280;56108;48.730;9.304;2023-01-26T06:50:38;97907.59;;;-0.63;100.00
967;BME280;56108;48.730;9.304;2023-01-26T06:52:50;97907.28;;;-0.48;100.00
967;BME280;56108;48.730;9.304;2023-01-26T06:55:19;97901.47;;;-0.61;100.00
967;BME280;56108;48.730;9.304;2023-01-26T06:57:36;97899.25;;;-0.81;100.00
967;BME280;56108;48.730;9.304;2023-01-26T07:00:10;97899.38;;;-0.87;100.00
967;BME280;56108;48.730;9.304;2023-01-26T07:02:30;97902.88;;;-0.89;100.00
967;BME280;56108;48.730;9.304;2023-01-26T07:04:38;97899.41;;;-0.88;100.00
967;BME280;56108;48.730;9.304;2023-01-26T07:06:47;97897.56;;;-0.85;100.00
967;BME280;56108;48.730;9.304;2023-01-26T07:08:57;97903.94;;;-0.99;100.00
967;BME280;56108;48.730;9.304;2023-01-26T07:11:06;97913.31;;;-0.89;100.00
967;BME280;56108;48.730;9.304;2023-01-26T07:13:14;97916.00;;;-0.92;100.00
967;BME280;56108;48.730;9.304;2023-01-26T07:15:22;97917.84;;;-0.97;100.00
967;BME280;56108;48.730;9.304;2023-01-26T07:17:30;97911.78;;;-0.99;100.00
967;BME280;56108;48.730;9.304;2023-01-26T07:19:38;97916.91;;;-0.95;100.00
967;BME280;56108;48.730;9.304;2023-01-26T07:21:46;97917.59;;;-0.85;100.00
967;BME280;56108;48.730;9.304;2023-01-26T07:23:57;97917.56;;;-0.82;100.00
967;BME280;56108;48.730;9.304;2023-01-26T07:26:06;97915.72;;;-0.77;100.00
967;BME280;56108;48.730;9.304;2023-01-26T07:28:14;97930.63;;;-0.84;100.00
967;BME280;56108;48.730;9.304;2023-01-26T07:30:22;97928.06;;;-0.85;100.00
967;BME280;56108;48.730;9.304;2023-01-26T07:32:31;97929.13;;;-0.95;100.00
967;BME280;56108;48.730;9.304;2023-01-26T07:34:39;97928.91;;;-0.85;100.00
967;BME280;56108;48.730;9.304;2023-01-26T07:36:50;97927.84;;;-0.73;100.00
967;BME280;56108;48.730;9.304;2023-01-26T07:39:01;97926.91;;;-0.70;100.00
967;BME280;56108;48.730;9.304;2023-01-26T07:41:12;97934.72;;;-0.69;100.00
967;BME280;56108;48.730;9.304;2023-01-26T07:43:20;97929.53;;;-0.70;100.00
967;BME280;56108;48.730;9.304;2023-01-26T07:45:30;97932.38;;;-0.83;100.00
967;BME280;56108;48.730;9.304;2023-01-26T07:47:38;97932.22;;;-0.75;100.00
967;BME280;56108;48.730;9.304;2023-01-26T07:49:46;97936.63;;;-0.77;100.00
967;BME280;56108;48.730;9.304;2023-01-26T07:51:54;97930.56;;;-0.79;100.00
967;BME280;56108;48.730;9.304;2023-01-26T07:54:04;97932.31;;;-0.78;100.00
967;BME280;56108;48.730;9.304;2023-01-26T07:56:14;97946.44;;;-0.90;100.00
967;BME280;56108;48.730;9.304;2023-01-26T07:58:23;97944.78;;;-0.95;100.00
967;BME280;56108;48.730;9.304;2023-01-26T08:00:31;97940.41;;;-0.93;100.00
967;BME280;56108;48.730;9.304;2023-01-26T08:02:39;97939.78;;;-1.08;100.00
967;BME280;56108;48.730;9.304;2023-01-26T08:04:47;97942.28;;;-1.01;100.00
967;BME280;56108;48.730;9.304;2023-01-26T08:06:56;97941.16;;;-0.87;100.00
967;BME280;56108;48.730;9.304;2023-01-26T08:09:07;97938.66;;;-0.94;100.00
967;BME280;56108;48.730;9.304;2023-01-26T08:11:15;97940.34;;;-0.89;100.00
967;BME280;56108;48.730;9.304;2023-01-26T08:13:23;97937.84;;;-0.96;100.00
967;BME280;56108;48.730;9.304;2023-01-26T08:15:39;97936.00;;;-0.91;100.00
967;BME280;56108;48.730;9.304;2023-01-26T08:17:47;97932.25;;;-0.76;100.00
967;BME280;56108;48.730;9.304;2023-01-26T08:19:58;97928.84;;;-0.80;100.00
967;BME280;56108;48.730;9.304;2023-01-26T08:22:07;97932.38;;;-0.83;100.00
967;BME280;56108;48.730;9.304;2023-01-26T08:24:18;97940.47;;;-0.96;100.00
967;BME280;56108;48.730;9.304;2023-01-26T08:26:26;97932.88;;;-0.64;100.00
967;BME280;56108;48.730;9.304;2023-01-26T08:28:35;97937.53;;;-0.78;100.00
967;BME280;56108;48.730;9.304;2023-01-26T08:30:43;97933.44;;;-0.94;100.00
967;BME280;56108;48.730;9.304;2023-01-26T08:32:51;97933.44;;;-0.94;100.00
967;BME280;56108;48.730;9.304;2023-01-26T08:34:59;97939.16;;;-0.72;100.00
967;BME280;56108;48.730;9.304;2023-01-26T08:37:07;97940.03;;;-0.72;100.00
967;BME280;56108;48.730;9.304;2023-01-26T08:39:18;97941.00;;;-0.77;100.00
967;BME280;56108;48.730;9.304;2023-01-26T08:41:26;97941.09;;;-0.84;100.00
967;BME280;56108;48.730;9.304;2023-01-26T08:43:35;97938.47;;;-0.82;100.00
967;BME280;56108;48.730;9.304;2023-01-26T08:45:46;97937.97;;;-0.58;100.00
967;BME280;56108;48.730;9.304;2023-01-26T08:47:54;97938.75;;;-0.53;100.00
967;BME280;56108;48.730;9.304;2023-01-26T08:50:03;97938.66;;;-0.48;100.00
967;BME280;56108;48.730;9.304;2023-01-26T08:52:10;97943.94;;;-0.49;100.00
967;BME280;56108;48.730;9.304;2023-01-26T08:54:21;97941.19;;;-0.43;100.00
967;BME280;56108;48.730;9.304;2023-01-26T08:56:29;97942.38;;;-0.16;100.00
967;BME280;56108;48.730;9.304;2023-01-26T08:58:37;97938.56;;;0.00;100.00
967;BME280;56108;48.730;9.304;2023-01-26T09:00:46;97933.47;;;-0.08;100.00
967;BME280;56108;48.730;9.304;2023-01-26T09:02:58;97937.41;;;0.12;100.00
967;BME280;56108;48.730;9.304;2023-01-26T09:05:08;97947.94;;;0.09;100.00
967;BME280;56108;48.730;9.304;2023-01-26T09:07:16;97953.22;;;0.07;100.00
967;BME280;56108;48.730;9.304;2023-01-26T09:09:27;97946.44;;;-0.03;100.00
967;BME280;56108;48.730;9.304;2023-01-26T09:11:34;97946.59;;;-0.09;100.00
967;BME280;56108;48.730;9.304;2023-01-26T09:13:42;97953.34;;;0.01;100.00
967;BME280;56108;48.730;9.304;2023-01-26T09:15:50;97937.66;;;0.01;100.00
967;BME280;56108;48.730;9.304;2023-01-26T09:17:58;97946.13;;;0.12;100.00
967;BME280;56108;48.730;9.304;2023-01-26T09:20:08;97940.19;;;0.04;100.00
967;BME280;56108;48.730;9.304;2023-01-26T09:22:16;97941.69;;;0.14;100.00
967;BME280;56108;48.730;9.304;2023-01-26T09:24:27;97939.22;;;0.08;100.00
967;BME280;56108;48.730;9.304;2023-01-26T09:26:34;97940.84;;;0.14;100.00
967;BME280;56108;48.730;9.304;2023-01-26T09:28:42;97947.88;;;0.10;100.00
967;BME280;56108;48.730;9.304;2023-01-26T09:30:50;97948.66;;;0.15;100.00
967;BME280;56108;48.730;9.304;2023-01-26T09:32:59;97960.00;;;0.14;100.00
967;BME280;56108;48.730;9.304;2023-01-26T09:35:07;97956.28;;;-0.14;100.00
967;BME280;56108;48.730;9.304;2023-01-26T09:37:18;97963.06;;;-0.06;100.00
967;BME280;56108;48.730;9.304;2023-01-26T09:39:29;97966.97;;;0.17;100.00
967;BME280;56108;48.730;9.304;2023-01-26T09:41:47;97967.25;;;0.03;100.00
967;BME280;56108;48.730;9.304;2023-01-26T09:43:57;97964.81;;;-0.06;100.00
967;BME280;56108;48.730;9.304;2023-01-26T09:46:17;97964.28;;;-0.22;100.00
967;BME280;56108;48.730;9.304;2023-01-26T09:48:36;97962.47;;;-0.18;100.00
967;BME280;56108;48.730;9.304;2023-01-26T09:50:51;97964.72;;;-0.02;100.00
967;BME280;56108;48.730;9.304;2023-01-26T09:53:03;97974.31;;;-0.02;100.00
967;BME280;56108;48.730;9.304;2023-01-26T09:55:19;97963.28;;;-0.16;100.00
967;BME280;56108;48.730;9.304;2023-01-26T09:57:32;97966.72;;;-0.13;100.00
967;BME280;56108;48.730;9.304;2023-01-26T09:59:47;97966.13;;;-0.27;100.00
967;BME280;56108;48.730;9.304;2023-01-26T10:02:00;97961.25;;;-0.44;100.00
967;BME280;56108;48.730;9.304;2023-01-26T10:04:18;97968.19;;;-0.43;100.00
967;BME280;56108;48.730;9.304;2023-01-26T10:06:35;97967.66;;;-0.60;100.00
967;BME280;56108;48.730;9.304;2023-01-26T10:08:49;97961.69;;;-0.67;100.00
967;BME280;56108;48.730;9.304;2023-01-26T10:11:05;97960.50;;;-0.50;100.00
967;BME280;56108;48.730;9.304;2023-01-26T10:13:15;97952.38;;;-0.37;100.00
967;BME280;56108;48.730;9.304;2023-01-26T10:15:29;97962.31;;;-0.54;100.00
967;BME280;56108;48.730;9.304;2023-01-26T10:17:40;97966.28;;;-0.80;100.00
967;BME280;56108;48.730;9.304;2023-01-26T10:19:53;97963.59;;;-0.75;100.00
967;BME280;56108;48.730;9.304;2023-01-26T10:22:04;97957.53;;;-0.77;100.00
967;BME280;56108;48.730;9.304;2023-01-26T10:24:16;97955.69;;;-0.72;100.00
967;BME280;56108;48.730;9.304;2023-01-26T10:26:31;97963.34;;;-0.61;100.00
967;BME280;56108;48.730;9.304;2023-01-26T10:28:41;97957.28;;;-0.65;100.00
967;BME280;56108;48.730;9.304;2023-01-26T10:30:50;97956.22;;;-0.55;100.00
967;BME280;56108;48.730;9.304;2023-01-26T10:32:59;97955.25;;;-0.49;100.00
967;BME280;56108;48.730;9.304;2023-01-26T10:35:15;97955.97;;;-0.41;100.00
967;BME280;56108;48.730;9.304;2023-01-26T10:37:27;97959.09;;;-0.23;100.00
967;BME280;56108;48.730;9.304;2023-01-26T10:39:57;97961.66;;;-0.22;100.00
967;BME280;56108;48.730;9.304;2023-01-26T10:42:17;97963.59;;;-0.32;100.00
967;BME280;56108;48.730;9.304;2023-01-26T10:44:31;97957.50;;;-0.31;100.00
967;BME280;56108;48.730;9.304;2023-01-26T10:46:41;97958.28;;;-0.25;100.00
967;BME280;56108;48.730;9.304;2023-01-26T10:48:51;97955.25;;;-0.07;100.00
967;BME280;56108;48.730;9.304;2023-01-26T10:51:14;97959.56;;;-0.05;100.00
967;BME280;56108;48.730;9.304;2023-01-26T10:53:24;97957.72;;;-0.41;100.00
967;BME280;56108;48.730;9.304;2023-01-26T10:55:34;97951.72;;;-0.48;100.00
967;BME280;56108;48.730;9.304;2023-01-26T10:57:53;97955.09;;;-0.41;100.00
967;BME280;56108;48.730;9.304;2023-01-26T11:00:09;97957.72;;;-0.43;100.00
967;BME280;56108;48.730;9.304;2023-01-26T11:02:28;97951.59;;;-0.42;100.00
967;BME280;56108;48.730;9.304;2023-01-26T11:04:37;97954.69;;;-0.65;100.00
967;BME280;56108;48.730;9.304;2023-01-26T11:06:45;97952.84;;;-0.60;100.00
967;BME280;56108;48.730;9.304;2023-01-26T11:08:53;97959.22;;;-0.73;100.00
967;BME280;56108;48.730;9.304;2023-01-26T11:11:23;97952.03;;;-0.63;100.00
967;BME280;56108;48.730;9.304;2023-01-26T11:13:35;97941.53;;;-0.60;100.00
967;BME280;56108;48.730;9.304;2023-01-26T11:15:45;97944.09;;;-0.59;100.00
967;BME280;56108;48.730;9.304;2023-01-26T11:17:58;97942.91;;;-0.42;100.00
967;BME280;56108;48.730;9.304;2023-01-26T11:20:27;97943.09;;;-0.51;100.00
967;BME280;56108;48.730;9.304;2023-01-26T11:22:46;97937.13;;;-0.58;100.00
967;BME280;56108;48.730;9.304;2023-01-26T11:25:06;97929.81;;;-0.86;100.00
967;BME280;56108;48.730;9.304;2023-01-26T11:27:32;97930.84;;;-0.49;100.00
967;BME280;56108;48.730;9.304;2023-01-26T11:30:05;97927.78;;;-0.28;100.00
967;BME280;56108;48.730;9.304;2023-01-26T11:32:22;97929.59;;;-0.30;100.00
967;BME280;56108;48.730;9.304;2023-01-26T11:34:40;97930.44;;;-0.30;100.00
967;BME280;56108;48.730;9.304;2023-01-26T11:37:01;97927.78;;;-0.28;100.00
967;BME280;56108;48.730;9.304;2023-01-26T11:39:20;97928.06;;;-0.42;100.00
967;BME280;56108;48.730;9.304;2023-01-26T11:41:42;97927.53;;;-0.58;100.00
967;BME280;56108;48.730;9.304;2023-01-26T11:44:17;97923.44;;;-0.71;100.00
967;BME280;56108;48.730;9.304;2023-01-26T11:49:13;97909.56;;;-0.73;100.00
967;BME280;56108;48.730;9.304;2023-01-26T11:51:36;97919.38;;;-0.86;100.00
967;BME280;56108;48.730;9.304;2023-01-26T11:54:02;97913.41;;;-0.92;100.00
967;BME280;56108;48.730;9.304;2023-01-26T11:56:27;97912.75;;;-1.05;100.00
967;BME280;56108;48.730;9.304;2023-01-26T11:58:40;97911.00;;;-1.03;100.00